Knights Ferry, California
Current Conditions -  °F | °C
As of 6:53 PM on Friday 19 Dec 2014 (Local Time) from KMOD Reporting Station
Light Rain Light Rain  
Wind Chill: 53°   Ceiling: 9500
Heat Index: 53°   Visibility: 7mi
Dew Point: 51°   Wind: 6mph
Humidity: 93%   Direction: 170°S
Pressure: 30.16"   Gusts: NA
Location:  37.7848°N, 120.772°W
Report Text: KMOD 200253Z 17005KT 7SM -RA FEW060 SCT080 OVC095 12/11 A3016 RMK AO2 SLP214 P0002 60007 T01170106 53002
Loading
Personal Weather Stations






























Interactive Weather Map New forecast layout! Learn more

10-Day Weather Forecast

Advertisements
Track Severe Weather on mobile